Time,TemperatureF,DewpointF,PressureIn,WindDirection,WindDirectionDegrees,WindSpeedMPH,WindSpeedGustMPH,Humidity,HourlyPrecipIn,Conditions,Clouds,dailyrainin,SolarRadiationWatts/m^2,SoftwareType,DateUTC
2013-07-30 00:01:00,63.7,63.3,30.04,East,97,0.0,0.0,99,-99.99,,,-99.99,0.0,meteohub,2013-07-30 04:01:00,
2013-07-30 00:03:00,63.7,63.3,30.05,East,97,0.0,0.0,99,-99.99,,,-99.99,0.0,meteohub,2013-07-30 04:03:00,
2013-07-30 00:04:00,63.7,63.3,30.05,East,97,0.0,0.0,99,-99.99,,,-99.99,0.0,meteohub,2013-07-30 04:04:00,
2013-07-30 00:09:00,63.7,63.3,30.05,East,97,0.0,0.0,99,-99.99,,,-99.99,0.0,meteohub,2013-07-30 04:09:00,
2013-07-30 00:14:00,63.9,63.9,30.04,East,97,0.0,0.0,100,-99.99,,,-99.99,0.0,meteohub,2013-07-30 04:14:00,
2013-07-30 00:20:00,63.9,63.9,30.04,East,97,0.0,0.0,100,-99.99,,,-99.99,0.0,meteohub,2013-07-30 04:20:00,
2013-07-30 00:25:00,64.0,64.0,30.04,East,97,0.0,0.0,100,-99.99,,,-99.99,0.0,meteohub,2013-07-30 04:25:00,
2013-07-30 00:30:00,64.0,64.0,30.05,East,97,0.0,0.0,100,-99.99,,,-99.99,0.0,meteohub,2013-07-30 04:30:00,
2013-07-30 00:35:00,64.0,64.0,30.05,East,97,0.0,0.0,100,-99.99,,,-99.99,0.0,meteohub,2013-07-30 04:35:00,
2013-07-30 00:40:00,64.0,63.7,30.05,East,97,0.0,0.0,99,-99.99,,,-99.99,0.0,meteohub,2013-07-30 04:40:00,
2013-07-30 00:46:00,63.9,63.9,30.04,East,97,0.0,0.0,100,-99.99,,,-99.99,0.0,meteohub,2013-07-30 04:46:00,
2013-07-30 00:51:00,63.9,63.9,30.04,East,97,0.0,0.0,100,-99.99,,,-99.99,0.0,meteohub,2013-07-30 04:51:00,
2013-07-30 00:56:00,63.9,63.9,30.04,East,97,0.0,0.0,100,-99.99,,,-99.99,0.0,meteohub,2013-07-30 04:56:00,
2013-07-30 01:01:00,63.9,63.9,30.04,East,97,0.0,0.0,100,-99.99,,,-99.99,0.0,meteohub,2013-07-30 05:01:00,
2013-07-30 01:06:00,64.0,64.0,30.04,East,97,0.0,0.0,100,-99.99,,,-99.99,0.0,meteohub,2013-07-30 05:06:00,
2013-07-30 01:11:00,64.0,64.0,30.05,East,97,0.0,0.0,100,-99.99,,,-99.99,0.0,meteohub,2013-07-30 05:11:00,
2013-07-30 01:16:00,64.0,64.0,30.04,East,97,0.0,0.0,100,-99.99,,,-99.99,0.0,meteohub,2013-07-30 05:16:00,
2013-07-30 01:22:00,64.0,64.0,30.04,East,97,0.0,0.0,100,-99.99,,,-99.99,0.0,meteohub,2013-07-30 05:22:00,
2013-07-30 01:27:00,64.0,64.0,30.04,East,97,0.0,0.0,100,-99.99,,,-99.99,0.0,meteohub,2013-07-30 05:27:00,
2013-07-30 01:32:00,64.0,64.0,30.04,East,97,0.0,0.0,100,-99.99,,,-99.99,0.0,meteohub,2013-07-30 05:32:00,
2013-07-30 01:37:00,64.0,64.0,30.03,East,97,0.0,0.0,100,-99.99,,,-99.99,0.0,meteohub,2013-07-30 05:37:00,
2013-07-30 01:42:00,64.0,64.0,30.03,East,97,0.0,1.0,100,-99.99,,,-99.99,0.0,meteohub,2013-07-30 05:42:00,
2013-07-30 01:47:00,64.0,64.0,30.04,East,97,0.0,1.0,100,-99.99,,,-99.99,0.0,meteohub,2013-07-30 05:47:00,
2013-07-30 01:52:00,64.0,64.0,30.03,East,97,0.0,1.0,100,-99.99,,,-99.99,0.0,meteohub,2013-07-30 05:52:00,
2013-07-30 01:57:00,64.0,64.0,30.03,East,97,0.0,0.0,100,-99.99,,,-99.99,0.0,meteohub,2013-07-30 05:57:00,
2013-07-30 02:02:00,64.0,64.0,30.03,East,97,0.0,0.0,100,-99.99,,,-99.99,0.0,meteohub,2013-07-30 06:02:00,
2013-07-30 02:08:00,63.9,63.9,30.03,East,97,0.0,0.0,100,-99.99,,,-99.99,0.0,meteohub,2013-07-30 06:08:00,
2013-07-30 02:13:00,63.9,63.9,30.03,East,97,0.0,1.0,100,-99.99,,,-99.99,0.0,meteohub,2013-07-30 06:13:00,
2013-07-30 02:18:00,63.9,63.9,30.02,East,97,0.0,1.0,100,-99.99,,,-99.99,0.0,meteohub,2013-07-30 06:18:00,
2013-07-30 02:23:00,63.7,63.7,30.03,East,97,0.0,1.0,100,-99.99,,,-99.99,0.0,meteohub,2013-07-30 06:23:00,
2013-07-30 02:28:00,63.7,63.7,30.03,East,97,0.0,0.0,100,-99.99,,,-99.99,0.0,meteohub,2013-07-30 06:28:00,
2013-07-30 02:33:00,63.7,63.3,30.02,East,97,0.0,0.0,99,-99.99,,,-99.99,0.0,meteohub,2013-07-30 06:33:00,
2013-07-30 02:38:00,63.5,63.1,30.03,East,97,0.0,0.0,99,-99.99,,,-99.99,0.0,meteohub,2013-07-30 06:38:00,
2013-07-30 02:44:00,63.5,63.1,30.03,East,97,0.0,1.0,99,-99.99,,,-99.99,0.0,meteohub,2013-07-30 06:44:00,
2013-07-30 02:49:00,63.3,63.0,30.03,East,97,0.0,1.0,99,-99.99,,,-99.99,0.0,meteohub,2013-07-30 06:49:00,
2013-07-30 02:54:00,63.1,63.1,30.03,East,97,0.0,1.0,100,-99.99,,,-99.99,0.0,meteohub,2013-07-30 06:54:00,
2013-07-30 02:59:00,63.1,62.8,30.02,East,97,0.0,0.0,99,-99.99,,,-99.99,0.0,meteohub,2013-07-30 06:59:00,
2013-07-30 03:04:00,63.0,62.6,30.02,East,97,0.0,0.0,99,-99.99,,,-99.99,0.0,meteohub,2013-07-30 07:04:00,
2013-07-30 03:09:00,63.0,62.6,30.02,East,97,0.0,0.0,99,-99.99,,,-99.99,0.0,meteohub,2013-07-30 07:09:00,
2013-07-30 03:14:00,63.0,63.0,30.01,East,97,0.0,0.0,100,-99.99,,,-99.99,0.0,meteohub,2013-07-30 07:14:00,
2013-07-30 03:19:00,63.1,63.1,30.02,East,97,0.0,0.0,100,-99.99,,,-99.99,0.0,meteohub,2013-07-30 07:19:00,
2013-07-30 03:24:00,63.0,63.0,30.01,ESE,107,0.0,0.0,100,-99.99,,,-99.99,0.0,meteohub,2013-07-30 07:24:00,
2013-07-30 03:30:00,63.0,63.0,30.02,ESE,107,0.0,0.0,100,-99.99,,,-99.99,0.0,meteohub,2013-07-30 07:30:00,
2013-07-30 03:35:00,63.1,63.1,30.01,ESE,107,0.0,1.0,100,-99.99,,,-99.99,0.0,meteohub,2013-07-30 07:35:00,
2013-07-30 03:40:00,63.0,63.0,30.01,ESE,107,0.0,1.0,100,-99.99,,,-99.99,0.0,meteohub,2013-07-30 07:40:00,
2013-07-30 03:45:00,63.0,63.0,30.01,ESE,107,0.0,1.0,100,-99.99,,,-99.99,0.0,meteohub,2013-07-30 07:45:00,
2013-07-30 03:50:00,63.0,63.0,30.01,ESE,107,0.0,1.0,100,-99.99,,,-99.99,0.0,meteohub,2013-07-30 07:50:00,
2013-07-30 03:55:00,63.0,63.0,30.01,ESE,107,0.0,1.0,100,-99.99,,,-99.99,0.0,meteohub,2013-07-30 07:55:00,
2013-07-30 04:00:00,63.1,63.1,30.01,ESE,107,0.0,0.0,100,-99.99,,,-99.99,0.0,meteohub,2013-07-30 08:00:00,
2013-07-30 04:06:00,63.1,63.1,30.01,ESE,107,0.0,0.0,100,-99.99,,,-99.99,0.0,meteohub,2013-07-30 08:06:00,
2013-07-30 04:11:00,63.1,63.1,30.01,ESE,107,0.0,0.0,100,-99.99,,,-99.99,0.0,meteohub,2013-07-30 08:11:00,
2013-07-30 04:16:00,63.1,63.1,30.01,ESE,107,0.0,0.0,100,-99.99,,,-99.99,0.0,meteohub,2013-07-30 08:16:00,
2013-07-30 04:21:00,63.1,63.1,30.01,ESE,107,0.0,1.0,100,-99.99,,,-99.99,0.0,meteohub,2013-07-30 08:21:00,
2013-07-30 04:26:00,63.0,63.0,30.01,ESE,107,0.0,1.0,100,-99.99,,,-99.99,0.0,meteohub,2013-07-30 08:26:00,
2013-07-30 04:31:00,63.0,63.0,30.01,ESE,107,0.0,1.0,100,-99.99,,,-99.99,0.0,meteohub,2013-07-30 08:31:00,
2013-07-30 04:36:00,63.0,63.0,30.01,ESE,107,0.0,0.0,100,-99.99,,,-99.99,0.0,meteohub,2013-07-30 08:36:00,
2013-07-30 04:41:00,62.8,62.8,30.01,ESE,107,0.0,0.0,100,-99.99,,,-99.99,0.0,meteohub,2013-07-30 08:41:00,
2013-07-30 04:46:00,63.0,63.0,30.01,ESE,107,0.0,0.0,100,-99.99,,,-99.99,0.0,meteohub,2013-07-30 08:46:00,
2013-07-30 04:52:00,62.8,62.8,30.01,ESE,107,0.0,0.0,100,-99.99,,,-99.99,0.0,meteohub,2013-07-30 08:52:00,
2013-07-30 04:57:00,62.8,62.8,30.01,ESE,107,0.0,0.0,100,-99.99,,,-99.99,0.0,meteohub,2013-07-30 08:57:00,
2013-07-30 05:02:00,62.8,62.8,30.01,ESE,107,0.0,0.0,100,-99.99,,,-99.99,0.0,meteohub,2013-07-30 09:02:00,
2013-07-30 05:07:00,62.8,62.8,30.01,ESE,107,0.0,0.0,100,-99.99,,,-99.99,0.0,meteohub,2013-07-30 09:07:00,
2013-07-30 05:12:00,63.0,63.0,30.01,ESE,107,0.0,0.0,100,-99.99,,,-99.99,0.0,meteohub,2013-07-30 09:12:00,
2013-07-30 05:17:00,63.0,63.0,30.01,ESE,107,0.0,0.0,100,-99.99,,,-99.99,0.0,meteohub,2013-07-30 09:17:00,
2013-07-30 05:22:00,63.0,63.0,30.01,ESE,107,0.0,0.0,100,-99.99,,,-99.99,0.0,meteohub,2013-07-30 09:22:00,
2013-07-30 05:27:00,63.0,63.0,30.01,ESE,107,0.0,0.0,100,-99.99,,,-99.99,0.0,meteohub,2013-07-30 09:27:00,
2013-07-30 05:32:00,63.0,63.0,30.01,ESE,107,0.0,0.0,100,-99.99,,,-99.99,0.0,meteohub,2013-07-30 09:32:00,
2013-07-30 05:37:00,63.1,63.1,30.01,ESE,107,0.0,0.0,100,-99.99,,,-99.99,0.0,meteohub,2013-07-30 09:37:00,
2013-07-30 05:42:00,63.1,63.1,30.02,ESE,107,0.0,0.0,100,-99.99,,,-99.99,0.0,meteohub,2013-07-30 09:42:00,
2013-07-30 05:47:00,63.1,63.1,30.02,ESE,107,0.0,0.0,100,-99.99,,,-99.99,5.0,meteohub,2013-07-30 09:47:00,
2013-07-30 05:53:00,63.1,63.1,30.02,ESE,107,0.0,0.0,100,-99.99,,,-99.99,7.0,meteohub,2013-07-30 09:53:00,
2013-07-30 05:58:00,63.1,63.1,30.02,ESE,107,0.0,0.0,100,-99.99,,,-99.99,9.0,meteohub,2013-07-30 09:58:00,
2013-07-30 06:03:00,63.1,63.1,30.02,ESE,107,0.0,0.0,100,-99.99,,,-99.99,11.0,meteohub,2013-07-30 10:03:00,
2013-07-30 06:08:00,63.0,63.0,30.02,ESE,107,0.0,0.0,100,-99.99,,,-99.99,12.0,meteohub,2013-07-30 10:08:00,
2013-07-30 06:13:00,63.0,63.0,30.02,ESE,107,0.0,0.0,100,-99.99,,,-99.99,16.0,meteohub,2013-07-30 10:13:00,
2013-07-30 06:18:00,62.8,62.8,30.01,ESE,107,0.0,0.0,100,-99.99,,,-99.99,19.0,meteohub,2013-07-30 10:18:00,
2013-07-30 06:24:00,62.8,62.8,30.02,ESE,107,0.0,0.0,100,-99.99,,,-99.99,18.0,meteohub,2013-07-30 10:24:00,
2013-07-30 06:29:00,62.8,62.8,30.02,ESE,107,0.0,0.0,100,-99.99,,,-99.99,18.0,meteohub,2013-07-30 10:29:00,
2013-07-30 06:34:00,62.8,62.8,30.02,ESE,107,0.0,1.0,100,-99.99,,,-99.99,21.0,meteohub,2013-07-30 10:34:00,
2013-07-30 06:39:00,62.8,62.8,30.02,ESE,107,0.0,1.0,100,-99.99,,,-99.99,30.0,meteohub,2013-07-30 10:39:00,
2013-07-30 06:44:00,62.8,62.8,30.02,ESE,107,0.0,1.0,100,-99.99,,,-99.99,33.0,meteohub,2013-07-30 10:44:00,
2013-07-30 06:49:00,63.0,63.0,30.02,ESE,107,0.0,0.0,100,-99.99,,,-99.99,49.0,meteohub,2013-07-30 10:49:00,
2013-07-30 06:54:00,63.0,63.0,30.02,ESE,107,0.0,0.0,100,-99.99,,,-99.99,51.0,meteohub,2013-07-30 10:54:00,
2013-07-30 06:59:00,63.1,63.1,30.02,ESE,107,0.0,0.0,100,-99.99,,,-99.99,46.0,meteohub,2013-07-30 10:59:00,
2013-07-30 07:04:00,63.0,63.0,30.03,ESE,107,0.0,0.0,100,-99.99,,,-99.99,40.0,meteohub,2013-07-30 11:04:00,
2013-07-30 07:09:00,63.0,63.0,30.03,ESE,107,0.0,0.0,100,-99.99,,,-99.99,37.0,meteohub,2013-07-30 11:09:00,
2013-07-30 07:14:00,63.0,63.0,30.03,ESE,107,0.0,0.0,100,-99.99,,,-99.99,44.0,meteohub,2013-07-30 11:14:00,
2013-07-30 07:19:00,63.0,63.0,30.03,ESE,107,0.0,0.0,100,-99.99,,,-99.99,42.0,meteohub,2013-07-30 11:19:00,
2013-07-30 07:24:00,63.0,63.0,30.03,ESE,107,0.0,0.0,100,-99.99,,,-99.99,56.0,meteohub,2013-07-30 11:24:00,
2013-07-30 07:29:00,63.0,63.0,30.03,ESE,107,0.0,0.0,100,-99.99,,,-99.99,65.0,meteohub,2013-07-30 11:29:00,
2013-07-30 07:34:00,63.0,63.0,30.03,ESE,107,0.0,0.0,100,-99.99,,,-99.99,79.0,meteohub,2013-07-30 11:34:00,
2013-07-30 07:39:00,63.1,63.1,30.03,ESE,107,0.0,0.0,100,-99.99,,,-99.99,76.0,meteohub,2013-07-30 11:39:00,
2013-07-30 07:44:00,63.1,63.1,30.03,ESE,107,0.0,0.0,100,-99.99,,,-99.99,84.0,meteohub,2013-07-30 11:44:00,
2013-07-30 07:49:00,63.1,63.1,30.03,ESE,107,0.0,0.0,100,-99.99,,,-99.99,120.0,meteohub,2013-07-30 11:49:00,
2013-07-30 07:54:00,63.1,63.1,30.02,ESE,107,0.0,0.0,100,-99.99,,,-99.99,102.0,meteohub,2013-07-30 11:54:00,
2013-07-30 07:59:00,63.1,63.1,30.02,ESE,107,0.0,0.0,100,-99.99,,,-99.99,98.0,meteohub,2013-07-30 11:59:00,
2013-07-30 08:04:00,63.3,63.3,30.03,ESE,107,0.0,0.0,100,-99.99,,,-99.99,100.0,meteohub,2013-07-30 12:04:00,
2013-07-30 08:09:00,63.5,63.5,30.03,ESE,107,0.0,1.0,100,-99.99,,,-99.99,95.0,meteohub,2013-07-30 12:09:00,
2013-07-30 08:14:00,63.7,63.7,30.03,ESE,107,0.0,1.0,100,-99.99,,,-99.99,116.0,meteohub,2013-07-30 12:14:00,
2013-07-30 08:19:00,63.7,63.7,30.03,ESE,107,0.0,1.0,100,-99.99,,,-99.99,141.0,meteohub,2013-07-30 12:19:00,
2013-07-30 08:24:00,63.5,63.5,30.03,ESE,107,0.0,0.0,100,-99.99,,,-99.99,142.0,meteohub,2013-07-30 12:24:00,
2013-07-30 08:29:00,63.3,63.3,30.03,ESE,107,0.0,0.0,100,-99.99,,,-99.99,181.0,meteohub,2013-07-30 12:29:00,
2013-07-30 08:34:00,63.5,63.5,30.03,ESE,107,0.0,1.0,100,-99.99,,,-99.99,153.0,meteohub,2013-07-30 12:34:00,
2013-07-30 08:39:00,63.9,63.9,30.03,ESE,107,0.0,1.0,100,-99.99,,,-99.99,188.0,meteohub,2013-07-30 12:39:00,
2013-07-30 08:44:00,63.9,63.9,30.03,ESE,107,0.0,1.0,100,-99.99,,,-99.99,181.0,meteohub,2013-07-30 12:44:00,
2013-07-30 08:49:00,64.0,64.0,30.03,ESE,107,0.0,1.0,100,-99.99,,,-99.99,149.0,meteohub,2013-07-30 12:49:00,
2013-07-30 08:54:00,64.4,64.4,30.03,ESE,107,1.0,1.0,100,-99.99,,,-99.99,181.0,meteohub,2013-07-30 12:54:00,
2013-07-30 08:59:00,64.4,64.4,30.03,ESE,122,0.0,1.0,100,-99.99,,,-99.99,149.0,meteohub,2013-07-30 12:59:00,
2013-07-30 09:04:00,64.6,64.6,30.03,ESE,122,0.0,1.0,100,-99.99,,,-99.99,148.0,meteohub,2013-07-30 13:04:00,
2013-07-30 09:10:00,64.8,64.8,30.03,ESE,122,0.0,1.0,100,-99.99,,,-99.99,188.0,meteohub,2013-07-30 13:10:00,
2013-07-30 09:15:00,65.1,65.1,30.03,ESE,122,0.0,1.0,100,-99.99,,,-99.99,188.0,meteohub,2013-07-30 13:15:00,
2013-07-30 09:20:00,65.5,65.5,30.03,ESE,122,0.0,0.0,100,-99.99,,,-99.99,209.0,meteohub,2013-07-30 13:20:00,
2013-07-30 09:25:00,65.7,65.3,30.03,ESE,122,0.0,1.0,99,-99.99,,,-99.99,163.0,meteohub,2013-07-30 13:25:00,
2013-07-30 09:30:00,66.0,65.7,30.03,ESE,122,0.0,1.0,99,-99.99,,,-99.99,202.0,meteohub,2013-07-30 13:30:00,
2013-07-30 09:35:00,66.0,65.5,30.03,South,170,0.0,0.0,98,-99.99,,,-99.99,209.0,meteohub,2013-07-30 13:35:00,
2013-07-30 09:40:00,66.2,65.7,30.03,South,170,0.0,1.0,98,-99.99,,,-99.99,204.0,meteohub,2013-07-30 13:40:00,
2013-07-30 09:45:00,66.6,66.0,30.03,South,170,0.0,1.0,98,-99.99,,,-99.99,241.0,meteohub,2013-07-30 13:45:00,
2013-07-30 09:51:00,66.7,65.5,30.03,SW,236,0.0,2.0,96,-99.99,,,-99.99,241.0,meteohub,2013-07-30 13:51:00,
2013-07-30 09:56:00,66.7,65.3,30.03,SW,235,0.0,2.0,95,-99.99,,,-99.99,243.0,meteohub,2013-07-30 13:56:00,
2013-07-30 10:01:00,66.9,65.5,30.03,SW,236,0.0,2.0,95,-99.99,,,-99.99,183.0,meteohub,2013-07-30 14:01:00,
2013-07-30 10:06:00,67.1,65.7,30.03,SW,235,0.0,1.0,95,-99.99,,,-99.99,195.0,meteohub,2013-07-30 14:06:00,
2013-07-30 10:11:00,67.5,65.7,30.03,SW,236,0.0,1.0,94,-99.99,,,-99.99,169.0,meteohub,2013-07-30 14:11:00,
2013-07-30 10:16:00,67.6,65.8,30.03,SW,236,0.0,1.0,94,-99.99,,,-99.99,253.0,meteohub,2013-07-30 14:16:00,
2013-07-30 10:22:00,68.0,65.8,30.03,SW,236,0.0,1.0,93,-99.99,,,-99.99,374.0,meteohub,2013-07-30 14:22:00,
2013-07-30 10:27:00,68.4,66.2,30.03,SW,236,0.0,1.0,93,-99.99,,,-99.99,374.0,meteohub,2013-07-30 14:27:00,
2013-07-30 10:32:00,69.1,66.9,30.03,SW,236,0.0,1.0,93,-99.99,,,-99.99,374.0,meteohub,2013-07-30 14:32:00,
2013-07-30 10:37:00,69.4,67.1,30.03,SW,236,0.0,1.0,92,-99.99,,,-99.99,383.0,meteohub,2013-07-30 14:37:00,
2013-07-30 10:42:00,69.8,66.4,30.03,SW,236,0.0,1.0,89,-99.99,,,-99.99,802.0,meteohub,2013-07-30 14:42:00,
2013-07-30 10:47:00,70.3,67.8,30.03,SW,236,0.0,1.0,92,-99.99,,,-99.99,831.0,meteohub,2013-07-30 14:47:00,
2013-07-30 10:52:00,71.2,68.5,30.03,SW,236,0.0,1.0,91,-99.99,,,-99.99,429.0,meteohub,2013-07-30 14:52:00,
2013-07-30 10:57:00,71.8,68.4,30.02,SW,236,0.0,1.0,89,-99.99,,,-99.99,935.0,meteohub,2013-07-30 14:57:00,
2013-07-30 11:02:00,71.8,67.1,30.02,WSW,240,0.0,2.0,85,-99.99,,,-99.99,320.0,meteohub,2013-07-30 15:02:00,
2013-07-30 11:07:00,71.8,67.3,30.02,WSW,240,0.0,2.0,86,-99.99,,,-99.99,192.0,meteohub,2013-07-30 15:07:00,
2013-07-30 11:12:00,71.4,67.1,30.02,WSW,240,0.0,2.0,86,-99.99,,,-99.99,916.0,meteohub,2013-07-30 15:12:00,
2013-07-30 11:17:00,71.8,67.3,30.02,WSW,240,0.0,2.0,86,-99.99,,,-99.99,835.0,meteohub,2013-07-30 15:17:00,
2013-07-30 11:22:00,71.8,66.7,30.01,WSW,240,0.0,2.0,84,-99.99,,,-99.99,942.0,meteohub,2013-07-30 15:22:00,
2013-07-30 11:27:00,72.0,66.9,30.01,WSW,240,0.0,2.0,84,-99.99,,,-99.99,942.0,meteohub,2013-07-30 15:27:00,
2013-07-30 11:32:00,72.1,66.7,30.01,WSW,250,0.0,3.0,83,-99.99,,,-99.99,942.0,meteohub,2013-07-30 15:32:00,
2013-07-30 11:38:00,72.1,67.1,30.01,WSW,250,1.0,3.0,84,-99.99,,,-99.99,942.0,meteohub,2013-07-30 15:38:00,
2013-07-30 11:43:00,72.0,66.6,30.01,WSW,253,4.0,4.0,83,-99.99,,,-99.99,856.0,meteohub,2013-07-30 15:43:00,
2013-07-30 11:48:00,71.6,66.6,30.01,WSW,253,0.0,4.0,84,-99.99,,,-99.99,951.0,meteohub,2013-07-30 15:48:00,
2013-07-30 11:53:00,71.8,67.3,30.01,WSW,253,2.0,4.0,86,-99.99,,,-99.99,995.0,meteohub,2013-07-30 15:53:00,
2013-07-30 11:58:00,71.2,66.2,30.01,WSW,237,2.0,4.0,84,-99.99,,,-99.99,171.0,meteohub,2013-07-30 15:58:00,
2013-07-30 12:03:00,71.1,66.9,30.01,WSW,256,2.0,4.0,87,-99.99,,,-99.99,374.0,meteohub,2013-07-30 16:03:00,
2013-07-30 12:08:00,71.1,66.0,30.01,West,272,1.0,4.0,84,-99.99,,,-99.99,171.0,meteohub,2013-07-30 16:08:00,
2013-07-30 12:13:00,70.5,65.5,30.01,WSW,251,1.0,5.0,84,-99.99,,,-99.99,162.0,meteohub,2013-07-30 16:13:00,
2013-07-30 12:18:00,70.9,66.2,30.01,West,267,1.0,5.0,85,-99.99,,,-99.99,111.0,meteohub,2013-07-30 16:18:00,
2013-07-30 12:23:00,71.4,66.4,30.01,WSW,246,1.0,2.0,84,-99.99,,,-99.99,100.0,meteohub,2013-07-30 16:23:00,
2013-07-30 12:28:00,72.1,66.4,30.01,WSW,246,1.0,3.0,82,-99.99,,,-99.99,104.0,meteohub,2013-07-30 16:28:00,
2013-07-30 12:33:00,72.7,67.3,30.01,WSW,252,1.0,3.0,83,-99.99,,,-99.99,98.0,meteohub,2013-07-30 16:33:00,
2013-07-30 12:38:00,73.2,67.8,30.01,WSW,252,0.0,3.0,83,-99.99,,,-99.99,109.0,meteohub,2013-07-30 16:38:00,
2013-07-30 12:44:00,73.8,67.6,30.00,WSW,253,0.0,2.0,81,-99.99,,,-99.99,107.0,meteohub,2013-07-30 16:44:00,
2013-07-30 12:49:00,74.5,67.5,30.00,WSW,257,0.0,2.0,79,-99.99,,,-99.99,98.0,meteohub,2013-07-30 16:49:00,
2013-07-30 12:54:00,75.0,67.6,30.00,WSW,257,0.0,2.0,78,-99.99,,,-99.99,120.0,meteohub,2013-07-30 16:54:00,
2013-07-30 12:59:00,75.2,67.8,30.00,WSW,257,0.0,2.0,78,-99.99,,,-99.99,118.0,meteohub,2013-07-30 16:59:00,
2013-07-30 13:04:00,75.6,67.1,30.00,WSW,257,1.0,2.0,75,-99.99,,,-99.99,93.0,meteohub,2013-07-30 17:04:00,
2013-07-30 13:10:00,75.6,67.1,30.00,WSW,257,0.0,1.0,75,-99.99,,,-99.99,93.0,meteohub,2013-07-30 17:10:00,
2013-07-30 13:15:00,75.7,68.0,29.99,SSE,162,0.0,1.0,77,-99.99,,,-99.99,90.0,meteohub,2013-07-30 17:15:00,
2013-07-30 13:20:00,76.1,67.6,29.99,WSW,253,0.0,2.0,75,-99.99,,,-99.99,120.0,meteohub,2013-07-30 17:20:00,
2013-07-30 13:25:00,76.5,68.0,29.99,WSW,253,0.0,2.0,75,-99.99,,,-99.99,93.0,meteohub,2013-07-30 17:25:00,
2013-07-30 13:30:00,76.8,68.4,29.99,West,280,0.0,2.0,75,-99.99,,,-99.99,172.0,meteohub,2013-07-30 17:30:00,
2013-07-30 13:35:00,77.0,66.9,29.99,West,280,0.0,3.0,71,-99.99,,,-99.99,151.0,meteohub,2013-07-30 17:35:00,
2013-07-30 13:40:00,76.8,66.7,29.99,West,279,0.0,3.0,71,-99.99,,,-99.99,107.0,meteohub,2013-07-30 17:40:00,
2013-07-30 13:45:00,77.2,67.5,29.99,West,279,0.0,2.0,72,-99.99,,,-99.99,146.0,meteohub,2013-07-30 17:45:00,
2013-07-30 13:50:00,77.2,66.2,29.99,West,279,0.0,2.0,69,-99.99,,,-99.99,97.0,meteohub,2013-07-30 17:50:00,
2013-07-30 13:55:00,77.0,66.0,29.99,West,279,1.0,2.0,69,-99.99,,,-99.99,95.0,meteohub,2013-07-30 17:55:00,
2013-07-30 14:00:00,76.6,65.3,29.99,West,272,1.0,2.0,68,-99.99,,,-99.99,107.0,meteohub,2013-07-30 18:00:00,
2013-07-30 14:06:00,76.5,65.5,29.99,West,271,0.0,3.0,69,-99.99,,,-99.99,105.0,meteohub,2013-07-30 18:06:00,
2013-07-30 14:11:00,76.3,64.9,29.98,WSW,257,0.0,3.0,68,-99.99,,,-99.99,130.0,meteohub,2013-07-30 18:11:00,
2013-07-30 14:16:00,76.3,64.6,29.98,WSW,257,1.0,3.0,67,-99.99,,,-99.99,111.0,meteohub,2013-07-30 18:16:00,
2013-07-30 14:21:00,76.6,65.3,29.98,West,259,0.0,3.0,68,-99.99,,,-99.99,146.0,meteohub,2013-07-30 18:21:00,
2013-07-30 14:26:00,77.2,66.6,29.98,West,259,0.0,3.0,70,-99.99,,,-99.99,411.0,meteohub,2013-07-30 18:26:00,
2013-07-30 14:32:00,77.5,64.4,29.98,WSW,257,0.0,3.0,64,-99.99,,,-99.99,884.0,meteohub,2013-07-30 18:32:00,
2013-07-30 14:37:00,77.7,64.9,29.98,WSW,257,1.0,3.0,65,-99.99,,,-99.99,874.0,meteohub,2013-07-30 18:37:00,
2013-07-30 14:42:00,77.7,64.9,29.98,WSW,258,1.0,3.0,65,-99.99,,,-99.99,872.0,meteohub,2013-07-30 18:42:00,
2013-07-30 14:47:00,76.8,63.7,29.98,West,259,1.0,3.0,64,-99.99,,,-99.99,102.0,meteohub,2013-07-30 18:47:00,
2013-07-30 14:52:00,75.7,64.0,29.98,West,259,0.0,3.0,67,-99.99,,,-99.99,116.0,meteohub,2013-07-30 18:52:00,
2013-07-30 14:57:00,75.9,64.2,29.98,West,259,0.0,3.0,67,-99.99,,,-99.99,795.0,meteohub,2013-07-30 18:57:00,
2013-07-30 15:02:00,76.8,64.6,29.98,West,259,0.0,2.0,66,-99.99,,,-99.99,837.0,meteohub,2013-07-30 19:02:00,
2013-07-30 15:07:00,77.5,63.0,29.97,West,279,2.0,2.0,61,-99.99,,,-99.99,800.0,meteohub,2013-07-30 19:07:00,
2013-07-30 15:12:00,77.7,63.7,29.98,West,269,2.0,3.0,62,-99.99,,,-99.99,749.0,meteohub,2013-07-30 19:12:00,
2013-07-30 15:17:00,77.5,63.0,29.98,West,269,2.0,3.0,61,-99.99,,,-99.99,742.0,meteohub,2013-07-30 19:17:00,
2013-07-30 15:22:00,77.4,62.4,29.98,West,267,1.0,3.0,60,-99.99,,,-99.99,737.0,meteohub,2013-07-30 19:22:00,
2013-07-30 15:27:00,77.4,61.9,29.97,West,273,2.0,3.0,59,-99.99,,,-99.99,729.0,meteohub,2013-07-30 19:27:00,
2013-07-30 15:32:00,77.4,62.4,29.97,West,273,2.0,3.0,60,-99.99,,,-99.99,707.0,meteohub,2013-07-30 19:32:00,
2013-07-30 15:37:00,77.4,62.4,29.98,West,273,1.0,3.0,60,-99.99,,,-99.99,693.0,meteohub,2013-07-30 19:37:00,
2013-07-30 15:42:00,77.2,62.2,29.98,West,268,2.0,3.0,60,-99.99,,,-99.99,686.0,meteohub,2013-07-30 19:42:00,
2013-07-30 15:47:00,77.2,62.6,29.98,West,267,1.0,3.0,61,-99.99,,,-99.99,684.0,meteohub,2013-07-30 19:47:00,
2013-07-30 15:52:00,77.4,62.8,29.98,West,267,0.0,3.0,61,-99.99,,,-99.99,680.0,meteohub,2013-07-30 19:52:00,
2013-07-30 15:57:00,77.7,61.7,29.98,West,267,2.0,3.0,58,-99.99,,,-99.99,747.0,meteohub,2013-07-30 19:57:00,
2013-07-30 16:02:00,77.9,61.9,29.98,West,266,1.0,3.0,58,-99.99,,,-99.99,763.0,meteohub,2013-07-30 20:02:00,
2013-07-30 16:08:00,77.2,62.2,29.98,West,263,1.0,3.0,60,-99.99,,,-99.99,132.0,meteohub,2013-07-30 20:08:00,
2013-07-30 16:13:00,76.5,63.0,29.98,West,263,1.0,3.0,63,-99.99,,,-99.99,156.0,meteohub,2013-07-30 20:13:00,
2013-07-30 16:18:00,76.3,63.1,29.98,West,263,1.0,3.0,64,-99.99,,,-99.99,689.0,meteohub,2013-07-30 20:18:00,
2013-07-30 16:23:00,77.2,64.6,29.98,West,263,1.0,3.0,65,-99.99,,,-99.99,647.0,meteohub,2013-07-30 20:23:00,
2013-07-30 16:28:00,77.5,63.0,29.98,WNW,285,1.0,3.0,61,-99.99,,,-99.99,163.0,meteohub,2013-07-30 20:28:00,
2013-07-30 16:33:00,77.9,62.4,29.98,WSW,255,2.0,3.0,59,-99.99,,,-99.99,608.0,meteohub,2013-07-30 20:33:00,
2013-07-30 16:38:00,77.7,62.2,29.98,West,268,1.0,3.0,59,-99.99,,,-99.99,578.0,meteohub,2013-07-30 20:38:00,
2013-07-30 16:43:00,78.1,62.6,29.98,West,270,2.0,3.0,59,-99.99,,,-99.99,548.0,meteohub,2013-07-30 20:43:00,
2013-07-30 16:48:00,78.1,62.1,29.98,West,269,1.0,3.0,58,-99.99,,,-99.99,512.0,meteohub,2013-07-30 20:48:00,
2013-07-30 16:53:00,78.1,62.1,29.98,West,269,0.0,3.0,58,-99.99,,,-99.99,496.0,meteohub,2013-07-30 20:53:00,
2013-07-30 16:58:00,78.4,63.0,29.98,West,269,1.0,3.0,59,-99.99,,,-99.99,482.0,meteohub,2013-07-30 20:58:00,
2013-07-30 17:04:00,78.4,62.4,29.98,West,270,1.0,3.0,58,-99.99,,,-99.99,466.0,meteohub,2013-07-30 21:04:00,
2013-07-30 17:09:00,78.4,62.4,29.98,West,269,1.0,2.0,58,-99.99,,,-99.99,454.0,meteohub,2013-07-30 21:09:00,
2013-07-30 17:14:00,78.3,63.3,29.98,West,270,1.0,2.0,60,-99.99,,,-99.99,441.0,meteohub,2013-07-30 21:14:00,
2013-07-30 17:19:00,78.1,61.5,29.98,West,265,2.0,2.0,57,-99.99,,,-99.99,424.0,meteohub,2013-07-30 21:19:00,
2013-07-30 17:24:00,78.1,60.6,29.98,West,265,1.0,3.0,55,-99.99,,,-99.99,404.0,meteohub,2013-07-30 21:24:00,
2013-07-30 17:29:00,78.1,61.5,29.98,West,265,1.0,3.0,57,-99.99,,,-99.99,392.0,meteohub,2013-07-30 21:29:00,
2013-07-30 17:34:00,78.3,61.7,29.98,West,265,0.0,3.0,57,-99.99,,,-99.99,381.0,meteohub,2013-07-30 21:34:00,
2013-07-30 17:39:00,78.4,64.4,29.98,WNW,284,0.0,3.0,62,-99.99,,,-99.99,373.0,meteohub,2013-07-30 21:39:00,
2013-07-30 17:44:00,78.1,65.3,29.98,North,0,0.0,2.0,65,-99.99,,,-99.99,369.0,meteohub,2013-07-30 21:44:00,
2013-07-30 17:49:00,77.4,65.5,29.98,East,82,0.0,2.0,67,-99.99,,,-99.99,371.0,meteohub,2013-07-30 21:49:00,
2013-07-30 17:54:00,76.5,65.5,29.98,East,81,0.0,2.0,69,-99.99,,,-99.99,156.0,meteohub,2013-07-30 21:54:00,
2013-07-30 17:59:00,75.4,64.6,29.98,East,81,0.0,2.0,69,-99.99,,,-99.99,123.0,meteohub,2013-07-30 21:59:00,
2013-07-30 18:04:00,74.1,63.7,29.98,East,89,1.0,3.0,70,-99.99,,,-99.99,74.0,meteohub,2013-07-30 22:04:00,
2013-07-30 18:09:00,72.9,63.7,29.98,East,83,1.0,6.0,73,-99.99,,,-99.99,49.0,meteohub,2013-07-30 22:09:00,
2013-07-30 18:14:00,71.8,63.5,29.99,ESE,103,1.0,6.0,75,-99.99,,,-99.99,54.0,meteohub,2013-07-30 22:14:00,
2013-07-30 18:19:00,70.9,63.3,29.99,ESE,111,0.0,3.0,77,-99.99,,,-99.99,114.0,meteohub,2013-07-30 22:19:00,
2013-07-30 18:24:00,70.5,63.0,29.99,ENE,67,0.0,2.0,77,-99.99,,,-99.99,144.0,meteohub,2013-07-30 22:24:00,
2013-07-30 18:29:00,70.2,62.6,29.99,East,80,1.0,5.0,77,-99.99,,,-99.99,100.0,meteohub,2013-07-30 22:29:00,
2013-07-30 18:34:00,70.0,62.8,29.99,East,85,0.0,5.0,78,-99.99,,,-99.99,37.0,meteohub,2013-07-30 22:34:00,
2013-07-30 18:39:00,69.6,62.4,29.99,East,96,1.0,5.0,78,-99.99,,,-99.99,100.0,meteohub,2013-07-30 22:39:00,
2013-07-30 18:45:00,69.3,62.8,29.99,ENE,69,3.0,5.0,80,-99.99,,,-99.99,60.0,meteohub,2013-07-30 22:45:00,
2013-07-30 18:50:00,69.1,62.6,29.99,East,98,0.0,5.0,80,-99.99,,,-99.99,51.0,meteohub,2013-07-30 22:50:00,
2013-07-30 18:55:00,69.1,63.0,29.99,East,98,0.0,5.0,81,-99.99,,,-99.99,53.0,meteohub,2013-07-30 22:55:00,
2013-07-30 19:00:00,69.1,63.0,29.99,East,98,0.0,2.0,81,-99.99,,,-99.99,49.0,meteohub,2013-07-30 23:00:00,
2013-07-30 19:05:00,68.9,63.1,29.99,East,98,0.0,1.0,82,-99.99,,,-99.99,19.0,meteohub,2013-07-30 23:05:00,
2013-07-30 19:10:00,68.7,63.0,29.99,East,98,0.0,1.0,82,-99.99,,,-99.99,18.0,meteohub,2013-07-30 23:10:00,
2013-07-30 19:15:00,68.5,62.8,29.99,East,98,0.0,1.0,82,-99.99,,,-99.99,25.0,meteohub,2013-07-30 23:15:00,
2013-07-30 19:20:00,68.4,62.6,29.99,ESE,109,0.0,2.0,82,-99.99,,,-99.99,14.0,meteohub,2013-07-30 23:20:00,
2013-07-30 19:26:00,68.0,62.6,30.00,ESE,109,0.0,2.0,83,-99.99,,,-99.99,12.0,meteohub,2013-07-30 23:26:00,
2013-07-30 19:31:00,67.6,62.2,29.99,ESE,109,0.0,2.0,83,-99.99,,,-99.99,23.0,meteohub,2013-07-30 23:31:00,
2013-07-30 19:36:00,67.5,62.4,29.99,ESE,109,0.0,1.0,84,-99.99,,,-99.99,21.0,meteohub,2013-07-30 23:36:00,
2013-07-30 19:41:00,67.3,62.2,29.99,ESE,105,1.0,2.0,84,-99.99,,,-99.99,14.0,meteohub,2013-07-30 23:41:00,
2013-07-30 19:46:00,66.9,61.9,30.00,ESE,104,0.0,2.0,84,-99.99,,,-99.99,7.0,meteohub,2013-07-30 23:46:00,
2013-07-30 19:51:00,66.7,62.1,30.00,ESE,107,0.0,2.0,85,-99.99,,,-99.99,5.0,meteohub,2013-07-30 23:51:00,
2013-07-30 19:57:00,66.7,62.1,30.00,ESE,107,0.0,2.0,85,-99.99,,,-99.99,5.0,meteohub,2013-07-30 23:57:00,
2013-07-30 20:02:00,66.6,62.2,30.00,ESE,104,0.0,1.0,86,-99.99,,,-99.99,0.0,meteohub,2013-07-31 00:02:00,
2013-07-30 20:07:00,66.2,61.9,30.00,East,101,0.0,2.0,86,-99.99,,,-99.99,0.0,meteohub,2013-07-31 00:07:00,
2013-07-30 20:12:00,66.0,62.1,30.00,East,101,1.0,2.0,87,-99.99,,,-99.99,0.0,meteohub,2013-07-31 00:12:00,
2013-07-30 20:17:00,65.8,61.9,30.01,East,101,0.0,2.0,87,-99.99,,,-99.99,0.0,meteohub,2013-07-31 00:17:00,
2013-07-30 20:22:00,65.7,61.7,30.01,East,92,0.0,1.0,87,-99.99,,,-99.99,0.0,meteohub,2013-07-31 00:22:00,
2013-07-30 20:28:00,65.7,61.7,30.01,ESE,103,0.0,3.0,87,-99.99,,,-99.99,0.0,meteohub,2013-07-31 00:28:00,
2013-07-30 20:33:00,65.7,62.1,30.01,ESE,103,0.0,3.0,88,-99.99,,,-99.99,0.0,meteohub,2013-07-31 00:33:00,
2013-07-30 20:38:00,65.5,61.9,30.01,ESE,103,0.0,2.0,88,-99.99,,,-99.99,0.0,meteohub,2013-07-31 00:38:00,
2013-07-30 20:43:00,65.3,61.7,30.01,ESE,103,0.0,1.0,88,-99.99,,,-99.99,0.0,meteohub,2013-07-31 00:43:00,
2013-07-30 20:48:00,65.1,61.5,30.01,East,88,0.0,2.0,88,-99.99,,,-99.99,0.0,meteohub,2013-07-31 00:48:00,
2013-07-30 20:53:00,64.9,61.3,30.02,East,101,0.0,2.0,88,-99.99,,,-99.99,0.0,meteohub,2013-07-31 00:53:00,
2013-07-30 20:58:00,64.8,61.5,30.02,East,89,0.0,2.0,89,-99.99,,,-99.99,0.0,meteohub,2013-07-31 00:58:00,
2013-07-30 21:00:00,64.8,61.5,30.02,East,101,0.0,2.0,89,-99.99,,,-99.99,0.0,meteohub,2013-07-31 01:00:00,
2013-07-30 21:05:00,64.8,61.5,30.02,East,97,1.0,3.0,89,-99.99,,,-99.99,0.0,meteohub,2013-07-31 01:05:00,
2013-07-30 21:10:00,64.6,61.3,30.02,East,98,0.0,3.0,89,-99.99,,,-99.99,0.0,meteohub,2013-07-31 01:10:00,
2013-07-30 21:16:00,64.4,61.3,30.02,East,85,0.0,3.0,90,-99.99,,,-99.99,0.0,meteohub,2013-07-31 01:16:00,
2013-07-30 21:21:00,64.2,61.2,30.02,East,93,0.0,3.0,90,-99.99,,,-99.99,0.0,meteohub,2013-07-31 01:21:00,
2013-07-30 21:26:00,64.0,61.0,30.03,East,94,0.0,2.0,90,-99.99,,,-99.99,0.0,meteohub,2013-07-31 01:26:00,
2013-07-30 21:31:00,63.9,61.2,30.03,East,95,1.0,3.0,91,-99.99,,,-99.99,0.0,meteohub,2013-07-31 01:31:00,
2013-07-30 21:36:00,63.9,61.2,30.03,East,94,0.0,3.0,91,-99.99,,,-99.99,0.0,meteohub,2013-07-31 01:36:00,
2013-07-30 21:41:00,63.7,61.0,30.03,East,94,0.0,3.0,91,-99.99,,,-99.99,0.0,meteohub,2013-07-31 01:41:00,
2013-07-30 21:47:00,63.3,60.6,30.03,ESE,105,1.0,2.0,91,-99.99,,,-99.99,0.0,meteohub,2013-07-31 01:47:00,
2013-07-30 21:52:00,63.3,61.0,30.03,ESE,105,0.0,2.0,92,-99.99,,,-99.99,0.0,meteohub,2013-07-31 01:52:00,
2013-07-30 21:57:00,63.1,60.8,30.03,ESE,105,0.0,2.0,92,-99.99,,,-99.99,0.0,meteohub,2013-07-31 01:57:00,
2013-07-30 22:02:00,63.0,60.6,30.03,ESE,105,1.0,1.0,92,-99.99,,,-99.99,0.0,meteohub,2013-07-31 02:02:00,
2013-07-30 22:07:00,63.0,60.6,30.03,East,89,0.0,2.0,92,-99.99,,,-99.99,0.0,meteohub,2013-07-31 02:07:00,
2013-07-30 22:12:00,62.8,60.4,30.03,East,89,0.0,2.0,92,-99.99,,,-99.99,0.0,meteohub,2013-07-31 02:12:00,
2013-07-30 22:17:00,62.6,60.6,30.03,East,88,0.0,2.0,93,-99.99,,,-99.99,0.0,meteohub,2013-07-31 02:17:00,
2013-07-30 22:22:00,62.8,60.8,30.04,East,88,0.0,1.0,93,-99.99,,,-99.99,0.0,meteohub,2013-07-31 02:22:00,
2013-07-30 22:27:00,62.8,60.8,30.04,East,88,0.0,1.0,93,-99.99,,,-99.99,0.0,meteohub,2013-07-31 02:27:00,
2013-07-30 22:32:00,62.8,60.8,30.04,East,88,0.0,1.0,93,-99.99,,,-99.99,0.0,meteohub,2013-07-31 02:32:00,
2013-07-30 22:37:00,62.6,60.6,30.04,East,88,0.0,1.0,93,-99.99,,,-99.99,0.0,meteohub,2013-07-31 02:37:00,
2013-07-30 22:42:00,62.4,60.4,30.03,East,88,0.0,1.0,93,-99.99,,,-99.99,0.0,meteohub,2013-07-31 02:42:00,
2013-07-30 22:47:00,62.6,60.6,30.04,East,88,0.0,1.0,93,-99.99,,,-99.99,0.0,meteohub,2013-07-31 02:47:00,
2013-07-30 22:52:00,62.4,60.4,30.03,East,88,0.0,1.0,93,-99.99,,,-99.99,0.0,meteohub,2013-07-31 02:52:00,
2013-07-30 22:57:00,62.2,60.3,30.04,East,88,0.0,1.0,93,-99.99,,,-99.99,0.0,meteohub,2013-07-31 02:57:00,
2013-07-30 23:02:00,62.1,60.1,30.04,East,88,0.0,0.0,93,-99.99,,,-99.99,0.0,meteohub,2013-07-31 03:02:00,
2013-07-30 23:07:00,61.9,59.9,30.04,East,88,0.0,0.0,93,-99.99,,,-99.99,0.0,meteohub,2013-07-31 03:07:00,
2013-07-30 23:12:00,61.7,59.7,30.04,East,88,0.0,0.0,93,-99.99,,,-99.99,0.0,meteohub,2013-07-31 03:12:00,
2013-07-30 23:17:00,61.5,59.7,30.04,East,88,0.0,1.0,94,-99.99,,,-99.99,0.0,meteohub,2013-07-31 03:17:00,
2013-07-30 23:22:00,61.3,59.5,30.04,East,88,0.0,1.0,94,-99.99,,,-99.99,0.0,meteohub,2013-07-31 03:22:00,
2013-07-30 23:27:00,61.2,59.4,30.04,East,88,0.0,1.0,94,-99.99,,,-99.99,0.0,meteohub,2013-07-31 03:27:00,
2013-07-30 23:33:00,61.0,59.5,30.03,East,88,0.0,1.0,95,-99.99,,,-99.99,0.0,meteohub,2013-07-31 03:33:00,
2013-07-30 23:38:00,61.0,59.5,30.03,East,88,0.0,1.0,95,-99.99,,,-99.99,0.0,meteohub,2013-07-31 03:38:00,
2013-07-30 23:43:00,60.6,59.2,30.04,East,88,0.0,1.0,95,-99.99,,,-99.99,0.0,meteohub,2013-07-31 03:43:00,
2013-07-30 23:48:00,60.4,59.0,30.04,East,88,0.0,1.0,95,-99.99,,,-99.99,0.0,meteohub,2013-07-31 03:48:00,
2013-07-30 23:53:00,60.4,59.4,30.04,East,88,0.0,1.0,96,-99.99,,,-99.99,0.0,meteohub,2013-07-31 03:53:00,
2013-07-30 23:58:00,60.4,59.4,30.04,East,88,0.0,1.0,96,-99.99,,,-99.99,0.0,meteohub,2013-07-31 03:58:00,